createdAt,value
2023-03-07T00:00:48.480Z,99.90
2023-03-07T00:03:17.488Z,99.90
2023-03-07T00:05:44.855Z,99.90
2023-03-07T00:08:12.446Z,99.90
2023-03-07T00:10:39.869Z,99.90
2023-03-07T00:13:07.164Z,99.90
2023-03-07T00:15:34.328Z,99.90
2023-03-07T00:18:01.651Z,99.90
2023-03-07T00:20:28.892Z,99.90
2023-03-07T00:22:56.050Z,99.90
2023-03-07T00:25:23.274Z,99.90
2023-03-07T00:27:50.752Z,99.90
2023-03-07T00:30:18.200Z,99.90
2023-03-07T00:32:45.366Z,99.90
2023-03-07T00:35:12.883Z,99.90
2023-03-07T00:37:40.127Z,99.90
2023-03-07T00:40:09.310Z,99.90
2023-03-07T00:42:36.457Z,99.90
2023-03-07T00:45:03.951Z,99.90
2023-03-07T00:47:31.220Z,99.90
2023-03-07T00:49:58.427Z,99.90
2023-03-07T00:52:26.080Z,99.90
2023-03-07T00:54:53.308Z,99.90
2023-03-07T00:57:21.199Z,99.90
2023-03-07T00:59:48.942Z,99.90
2023-03-07T01:02:16.668Z,99.90
2023-03-07T01:04:43.916Z,99.90
2023-03-07T01:07:11.621Z,99.90
2023-03-07T01:09:38.869Z,99.90
2023-03-07T01:12:07.242Z,99.90
2023-03-07T01:14:34.532Z,99.90
2023-03-07T01:17:02.041Z,99.90
2023-03-07T01:19:30.093Z,99.90
2023-03-07T01:21:57.454Z,99.90
2023-03-07T01:24:24.910Z,99.90
2023-03-07T01:26:52.877Z,99.90
2023-03-07T01:29:20.457Z,99.90
2023-03-07T01:31:47.723Z,99.90
2023-03-07T01:34:15.647Z,99.90
2023-03-07T01:36:43.007Z,99.90
2023-03-07T01:39:15.251Z,99.90
2023-03-07T01:41:48.043Z,99.90
2023-03-07T01:44:20.115Z,99.90
2023-03-07T01:47:05.584Z,99.90
2023-03-07T01:49:46.812Z,99.90
2023-03-07T01:52:25.217Z,99.90
2023-03-07T01:55:02.726Z,99.90
2023-03-07T01:57:34.901Z,99.90
2023-03-07T02:00:08.812Z,99.90
2023-03-07T02:02:44.946Z,99.90
2023-03-07T02:05:34.233Z,99.90
2023-03-07T02:08:03.000Z,99.90
2023-03-07T02:10:34.358Z,99.90
2023-03-07T02:13:02.746Z,99.90
2023-03-07T02:15:30.488Z,99.90
2023-03-07T02:17:58.724Z,99.90
2023-03-07T02:20:31.702Z,99.90
2023-03-07T02:22:59.159Z,99.90
2023-03-07T02:25:59.392Z,99.90
2023-03-07T02:28:28.210Z,99.90
2023-03-07T02:30:58.250Z,99.90
2023-03-07T02:33:28.677Z,99.90
2023-03-07T02:36:14.260Z,99.90
2023-03-07T02:38:50.999Z,99.90
2023-03-07T02:41:23.923Z,99.90
2023-03-07T02:43:51.554Z,99.90
2023-03-07T02:46:19.796Z,99.90
2023-03-07T02:48:47.468Z,99.90
2023-03-07T02:51:14.984Z,99.90
2023-03-07T02:53:45.788Z,99.90
2023-03-07T02:56:14.761Z,99.90
2023-03-07T02:58:42.738Z,99.90
2023-03-07T03:01:10.677Z,99.90
2023-03-07T03:03:38.352Z,99.90
2023-03-07T03:06:05.699Z,99.90
2023-03-07T03:08:32.944Z,99.90
2023-03-07T03:11:02.221Z,99.90
2023-03-07T03:13:30.304Z,99.90
2023-03-07T03:15:59.613Z,99.90
2023-03-07T03:18:30.892Z,99.90
2023-03-07T03:20:59.537Z,99.90
2023-03-07T03:23:28.119Z,99.90
2023-03-07T03:26:05.119Z,99.90
2023-03-07T03:28:35.391Z,99.90
2023-03-07T03:31:08.848Z,99.90
2023-03-07T03:33:36.860Z,99.90
2023-03-07T03:36:10.516Z,99.90
2023-03-07T03:38:39.116Z,99.90
2023-03-07T03:41:12.425Z,99.90
2023-03-07T03:43:40.180Z,99.90
2023-03-07T03:46:07.385Z,99.90
2023-03-07T03:48:37.149Z,99.90
2023-03-07T03:51:07.740Z,99.90
2023-03-07T03:53:36.614Z,99.90
2023-03-07T03:56:08.034Z,99.90
2023-03-07T03:58:36.252Z,99.90
2023-03-07T04:01:05.824Z,99.90
2023-03-07T04:03:38.429Z,99.90
2023-03-07T04:06:08.130Z,99.90
2023-03-07T04:08:35.896Z,99.90
2023-03-07T04:11:04.743Z,99.90
2023-03-07T04:13:33.412Z,99.90
2023-03-07T04:16:00.891Z,99.90
2023-03-07T04:18:28.624Z,99.90
2023-03-07T04:20:55.980Z,99.90
2023-03-07T04:23:24.653Z,99.90
2023-03-07T04:25:57.649Z,99.90
2023-03-07T04:28:27.893Z,99.90
2023-03-07T04:30:59.458Z,99.90
2023-03-07T04:33:30.098Z,99.90
2023-03-07T04:35:57.713Z,99.90
2023-03-07T04:38:25.181Z,99.90
2023-03-07T04:40:52.967Z,99.90
2023-03-07T04:43:21.626Z,99.90
2023-03-07T04:45:49.057Z,99.90
2023-03-07T04:48:16.245Z,99.90
2023-03-07T04:50:43.456Z,99.90
2023-03-07T04:53:10.698Z,99.90
2023-03-07T04:55:38.211Z,99.90
2023-03-07T04:58:08.891Z,99.90
2023-03-07T05:00:36.245Z,99.90
2023-03-07T05:03:03.649Z,99.90
2023-03-07T05:05:32.381Z,99.90
2023-03-07T05:08:00.425Z,99.90
2023-03-07T05:10:27.659Z,99.90
2023-03-07T05:12:55.136Z,99.90
2023-03-07T05:15:22.934Z,99.90
2023-03-07T05:17:50.403Z,99.90
2023-03-07T05:20:18.967Z,99.90
2023-03-07T05:22:47.657Z,99.90
2023-03-07T05:25:15.095Z,99.90
2023-03-07T05:27:43.171Z,99.90
2023-03-07T05:30:11.384Z,99.90
2023-03-07T05:32:38.574Z,99.90
2023-03-07T05:35:06.996Z,99.90
2023-03-07T05:37:34.799Z,99.90
2023-03-07T05:40:02.105Z,99.90
2023-03-07T05:42:29.526Z,99.90
2023-03-07T05:44:57.346Z,99.90
2023-03-07T05:47:24.578Z,99.90
2023-03-07T05:49:52.170Z,99.90
2023-03-07T05:52:20.555Z,99.90
2023-03-07T05:54:49.993Z,99.90
2023-03-07T05:57:18.964Z,99.90
2023-03-07T05:59:46.167Z,99.90
2023-03-07T06:02:14.665Z,99.90
2023-03-07T06:04:41.843Z,99.90
2023-03-07T06:07:09.001Z,99.90
2023-03-07T06:09:36.942Z,99.90
2023-03-07T06:12:05.046Z,99.90
2023-03-07T06:14:32.843Z,99.90
2023-03-07T06:17:01.426Z,99.90
2023-03-07T06:19:29.795Z,99.90
2023-03-07T06:21:57.152Z,99.90
2023-03-07T06:24:24.529Z,99.90
2023-03-07T06:26:51.753Z,99.90
2023-03-07T06:29:21.678Z,99.90
2023-03-07T06:31:49.614Z,99.90
2023-03-07T06:34:17.302Z,99.90
2023-03-07T06:36:46.178Z,99.90
2023-03-07T06:39:16.808Z,99.90
2023-03-07T06:41:44.115Z,99.90
2023-03-07T06:44:11.717Z,99.90
2023-03-07T06:46:39.134Z,99.90
2023-03-07T06:49:12.320Z,99.90
2023-03-07T06:51:40.033Z,99.90
2023-03-07T06:54:08.185Z,99.90
2023-03-07T06:56:35.981Z,99.90
2023-03-07T06:59:03.736Z,99.90
2023-03-07T07:01:30.991Z,99.90
2023-03-07T07:04:00.155Z,99.90
2023-03-07T07:06:28.749Z,99.90
2023-03-07T07:08:57.258Z,99.90
2023-03-07T07:11:27.248Z,99.90
2023-03-07T07:13:55.274Z,99.90
2023-03-07T07:16:23.566Z,99.90
2023-03-07T07:18:51.963Z,99.90
2023-03-07T07:21:20.823Z,99.90
2023-03-07T07:23:48.368Z,99.90
2023-03-07T07:26:16.287Z,99.90
2023-03-07T07:28:43.533Z,99.90
2023-03-07T07:31:10.753Z,99.90
2023-03-07T07:33:38.493Z,99.90
2023-03-07T07:36:07.991Z,99.90
2023-03-07T07:38:36.502Z,99.90
2023-03-07T07:41:06.827Z,99.90
2023-03-07T07:43:34.811Z,99.90
2023-03-07T07:46:18.296Z,99.90
2023-03-07T07:48:49.182Z,99.90
2023-03-07T07:51:17.455Z,99.90
2023-03-07T07:53:44.916Z,99.90
2023-03-07T07:56:12.546Z,99.90
2023-03-07T07:58:40.625Z,99.90
2023-03-07T08:01:20.379Z,99.90
2023-03-07T08:03:51.003Z,99.90
2023-03-07T08:06:26.376Z,99.90
2023-03-07T08:08:54.398Z,99.90
2023-03-07T08:11:22.763Z,99.90
2023-03-07T08:13:50.154Z,99.90
2023-03-07T08:16:19.767Z,99.90
2023-03-07T08:18:55.850Z,99.90
2023-03-07T08:21:24.198Z,99.90
2023-03-07T08:23:52.822Z,99.90
2023-03-07T08:26:21.420Z,99.90
2023-03-07T08:28:48.576Z,99.90
2023-03-07T08:31:23.374Z,99.90
2023-03-07T08:33:51.605Z,99.90
2023-03-07T08:36:19.646Z,99.90
2023-03-07T08:38:51.742Z,99.90
2023-03-07T08:41:20.519Z,99.90
2023-03-07T08:43:48.397Z,99.90
2023-03-07T08:46:16.419Z,99.90
2023-03-07T08:48:43.680Z,99.90
2023-03-07T08:51:14.940Z,99.90
2023-03-07T08:53:43.152Z,99.90
2023-03-07T08:56:15.021Z,99.90
2023-03-07T08:58:42.662Z,99.90
2023-03-07T09:01:10.197Z,99.90
2023-03-07T09:03:37.408Z,99.90
2023-03-07T09:06:06.133Z,99.90
2023-03-07T09:08:33.391Z,99.90
2023-03-07T09:11:03.473Z,99.90
2023-03-07T09:13:33.028Z,99.90
2023-03-07T09:16:05.365Z,99.90
2023-03-07T09:18:33.947Z,99.90
2023-03-07T09:21:02.525Z,99.90
2023-03-07T09:23:32.028Z,99.90
2023-03-07T09:26:00.975Z,99.90
2023-03-07T09:28:28.694Z,99.90
2023-03-07T09:30:55.998Z,99.90
2023-03-07T09:33:23.307Z,99.90
2023-03-07T09:35:50.550Z,99.90
2023-03-07T09:38:17.758Z,99.90
2023-03-07T09:40:47.945Z,99.90
2023-03-07T09:43:25.709Z,99.90
2023-03-07T09:46:24.705Z,99.90
2023-03-07T09:49:12.362Z,99.90
2023-03-07T09:51:41.983Z,99.90
2023-03-07T09:54:20.012Z,99.90
2023-03-07T09:56:57.951Z,99.90
2023-03-07T09:59:41.440Z,99.90
2023-03-07T10:02:24.828Z,99.90
2023-03-07T10:05:08.134Z,99.90
2023-03-07T10:07:35.986Z,99.90
2023-03-07T10:10:10.845Z,99.90
2023-03-07T10:13:12.575Z,99.90
2023-03-07T10:15:45.346Z,99.90
2023-03-07T10:18:23.966Z,99.90
2023-03-07T10:21:14.492Z,99.90
2023-03-07T10:23:51.580Z,99.90
2023-03-07T10:26:25.396Z,99.90
2023-03-07T10:28:53.265Z,99.90
2023-03-07T10:31:34.155Z,99.90
2023-03-07T10:34:19.932Z,99.90
2023-03-07T10:37:09.513Z,99.90
2023-03-07T10:39:53.044Z,99.90
2023-03-07T10:42:23.307Z,99.90
2023-03-07T10:44:51.897Z,99.90
2023-03-07T10:47:22.424Z,99.90
2023-03-07T10:49:55.000Z,99.90
2023-03-07T10:52:53.783Z,99.90
2023-03-07T10:55:32.989Z,99.90
2023-03-07T10:58:22.187Z,99.90
2023-03-07T11:01:20.443Z,99.90
2023-03-07T11:03:54.180Z,99.90
2023-03-07T11:06:28.589Z,99.90
2023-03-07T11:08:56.279Z,99.90
2023-03-07T11:11:26.511Z,99.90
2023-03-07T11:14:15.337Z,99.90
2023-03-07T11:16:51.004Z,99.90
2023-03-07T11:19:37.986Z,99.90
2023-03-07T11:22:19.916Z,99.90
2023-03-07T11:25:01.166Z,99.90
2023-03-07T11:27:46.365Z,99.90
2023-03-07T11:30:22.064Z,99.90
2023-03-07T11:33:17.663Z,99.90
2023-03-07T11:36:15.410Z,99.90
2023-03-07T11:38:57.439Z,99.90
2023-03-07T11:41:29.634Z,99.90
2023-03-07T11:44:26.346Z,99.90
2023-03-07T11:47:12.430Z,99.90
2023-03-07T11:50:04.358Z,99.90
2023-03-07T11:52:45.172Z,99.90
2023-03-07T11:55:27.005Z,99.90
2023-03-07T11:58:21.250Z,99.90
2023-03-07T12:01:12.062Z,99.90
2023-03-07T12:04:11.882Z,99.90
2023-03-07T12:07:16.558Z,99.90
2023-03-07T12:09:57.604Z,99.90
2023-03-07T12:12:55.854Z,94.50
2023-03-07T12:15:51.235Z,87.80
2023-03-07T12:18:59.744Z,85.40
2023-03-07T12:21:50.630Z,88.40
2023-03-07T12:24:28.480Z,82.70
2023-03-07T12:27:02.062Z,84.20
2023-03-07T12:29:37.407Z,79.70
2023-03-07T12:32:10.364Z,82.80
2023-03-07T12:34:43.627Z,85.40
2023-03-07T12:37:16.631Z,87.80
2023-03-07T12:39:58.466Z,89.40
2023-03-07T12:42:38.884Z,90.10
2023-03-07T12:45:17.521Z,91.00
2023-03-07T12:47:57.875Z,80.60
2023-03-07T12:51:11.079Z,78.10
2023-03-07T12:53:46.879Z,72.50
2023-03-07T12:56:41.302Z,63.40
2023-03-07T12:59:15.371Z,60.80
2023-03-07T13:01:50.620Z,53.80
2023-03-07T13:04:31.853Z,51.00
2023-03-07T13:07:09.989Z,52.50
2023-03-07T13:09:41.159Z,52.10
2023-03-07T13:12:25.320Z,51.10
2023-03-07T13:14:55.528Z,48.90
2023-03-07T13:17:34.420Z,51.40
2023-03-07T13:20:20.610Z,54.20
2023-03-07T13:22:47.823Z,54.30
2023-03-07T13:27:53.486Z,66.50
2023-03-07T13:30:24.914Z,68.70
2023-03-07T13:32:52.136Z,62.80
2023-03-07T13:35:28.200Z,62.10
2023-03-07T13:38:10.645Z,57.00
2023-03-07T13:40:47.254Z,54.40
2023-03-07T13:43:26.377Z,51.00
2023-03-07T13:45:58.696Z,52.30
2023-03-07T13:48:28.839Z,51.70
2023-03-07T13:50:59.986Z,50.50
2023-03-07T13:53:33.359Z,50.50
2023-03-07T13:56:15.656Z,49.50
2023-03-07T13:59:14.652Z,50.60
2023-03-07T14:01:46.835Z,49.80
2023-03-07T14:04:29.684Z,51.80
2023-03-07T14:07:17.000Z,55.40
2023-03-07T14:09:51.274Z,58.70
2023-03-07T14:12:32.897Z,59.40
2023-03-07T14:15:26.853Z,60.20
2023-03-07T14:18:16.843Z,60.40
2023-03-07T14:21:01.623Z,64.40
2023-03-07T14:23:51.490Z,65.40
2023-03-07T14:26:34.014Z,64.40
2023-03-07T14:29:12.138Z,66.40
2023-03-07T14:31:41.779Z,72.70
2023-03-07T14:34:33.115Z,92.90
2023-03-07T14:37:06.603Z,99.90
2023-03-07T14:39:54.402Z,99.90
2023-03-07T14:42:32.991Z,99.90
2023-03-07T14:45:36.461Z,99.90
2023-03-07T14:48:23.932Z,99.90
2023-03-07T14:50:51.777Z,99.90
2023-03-07T14:53:27.969Z,99.90
2023-03-07T14:55:58.656Z,99.90
2023-03-07T14:58:29.395Z,99.90
2023-03-07T15:01:02.675Z,99.90
2023-03-07T15:03:31.954Z,99.90
2023-03-07T15:06:01.507Z,99.90
2023-03-07T15:08:35.267Z,99.90
2023-03-07T15:11:06.454Z,99.90
2023-03-07T15:13:45.804Z,99.90
2023-03-07T15:16:26.379Z,99.90
2023-03-07T15:18:58.317Z,99.90
2023-03-07T15:21:31.182Z,99.90
2023-03-07T15:23:59.956Z,99.90
2023-03-07T15:26:28.316Z,99.90
2023-03-07T15:29:06.297Z,99.90
2023-03-07T15:31:50.240Z,99.90
2023-03-07T15:34:33.342Z,99.90
2023-03-07T15:37:20.518Z,99.90
2023-03-07T15:40:07.857Z,99.90
2023-03-07T15:42:52.519Z,99.90
2023-03-07T15:45:40.273Z,99.50
2023-03-07T15:48:29.373Z,98.80
2023-03-07T15:50:59.109Z,97.00
2023-03-07T15:53:32.288Z,97.60
2023-03-07T15:56:02.035Z,97.30
2023-03-07T15:58:30.889Z,97.20
2023-03-07T16:01:27.713Z,97.70
2023-03-07T16:03:58.020Z,96.30
2023-03-07T16:06:40.035Z,96.10
2023-03-07T16:09:12.153Z,96.40
2023-03-07T16:11:40.446Z,95.80
2023-03-07T16:14:32.187Z,96.30
2023-03-07T16:17:09.410Z,96.50
2023-03-07T16:19:36.643Z,97.00
2023-03-07T16:22:04.420Z,97.80
2023-03-07T16:24:31.585Z,98.00
2023-03-07T16:26:59.149Z,98.20
2023-03-07T16:29:27.308Z,98.10
2023-03-07T16:31:55.195Z,99.20
2023-03-07T16:34:23.236Z,98.90
2023-03-07T16:36:50.406Z,99.20
2023-03-07T16:39:18.549Z,99.90
2023-03-07T16:41:50.046Z,99.80
2023-03-07T16:44:20.175Z,99.90
2023-03-07T16:46:56.803Z,99.90
2023-03-07T16:49:24.205Z,99.90
2023-03-07T16:52:05.156Z,99.90
2023-03-07T16:54:33.753Z,99.90
2023-03-07T16:57:02.482Z,99.90
2023-03-07T16:59:35.628Z,99.90
2023-03-07T17:02:16.040Z,99.90
2023-03-07T17:05:16.351Z,99.90
2023-03-07T17:07:43.970Z,99.90
2023-03-07T17:10:12.202Z,99.90
2023-03-07T17:12:40.907Z,99.90
2023-03-07T17:15:12.826Z,99.90
2023-03-07T17:17:42.890Z,99.90
2023-03-07T17:20:20.819Z,99.90
2023-03-07T17:22:53.499Z,99.90
2023-03-07T17:25:22.016Z,99.90
2023-03-07T17:27:54.499Z,99.90
2023-03-07T17:30:27.253Z,99.90
2023-03-07T17:32:54.680Z,99.90
2023-03-07T17:35:22.202Z,99.90
2023-03-07T17:37:51.299Z,99.90
2023-03-07T17:40:20.237Z,99.90
2023-03-07T17:42:50.935Z,99.90
2023-03-07T17:45:18.659Z,99.90
2023-03-07T17:47:54.974Z,99.90
2023-03-07T17:50:26.045Z,99.90
2023-03-07T17:52:54.757Z,99.90
2023-03-07T17:55:24.844Z,99.90
2023-03-07T17:57:52.279Z,99.90
2023-03-07T18:00:21.566Z,99.90
2023-03-07T18:02:49.148Z,99.90
2023-03-07T18:05:21.092Z,99.90
2023-03-07T18:07:51.342Z,99.90
2023-03-07T18:10:18.978Z,99.90
2023-03-07T18:12:46.433Z,99.90
2023-03-07T18:15:16.120Z,99.90
2023-03-07T18:17:49.178Z,99.90
2023-03-07T18:20:19.000Z,99.90
2023-03-07T18:22:46.291Z,99.90
2023-03-07T18:25:15.458Z,99.90
2023-03-07T18:27:46.241Z,99.90
2023-03-07T18:30:14.438Z,99.90
2023-03-07T18:32:41.805Z,99.90
2023-03-07T18:35:09.906Z,99.90
2023-03-07T18:37:37.289Z,99.90
2023-03-07T18:40:05.100Z,99.90
2023-03-07T18:42:33.769Z,99.90
2023-03-07T18:45:01.241Z,99.90
2023-03-07T18:47:30.487Z,99.90
2023-03-07T18:49:57.731Z,99.90
2023-03-07T18:52:25.009Z,99.90
2023-03-07T18:54:52.176Z,99.90
2023-03-07T18:57:19.662Z,99.90
2023-03-07T18:59:47.205Z,99.90
2023-03-07T19:02:14.686Z,99.90
2023-03-07T19:04:42.215Z,99.90
2023-03-07T19:07:09.422Z,99.90
2023-03-07T19:09:36.596Z,99.90
2023-03-07T19:12:04.990Z,99.90
2023-03-07T19:14:33.078Z,99.90
2023-03-07T19:17:00.327Z,99.90
2023-03-07T19:19:27.768Z,99.90
2023-03-07T19:21:55.038Z,99.90
2023-03-07T19:24:23.275Z,99.90
2023-03-07T19:26:50.494Z,99.90
2023-03-07T19:29:17.670Z,99.90
2023-03-07T19:31:44.972Z,99.90
2023-03-07T19:34:12.456Z,99.90
2023-03-07T19:36:41.406Z,99.90
2023-03-07T19:39:10.422Z,99.90
2023-03-07T19:41:40.344Z,99.90
2023-03-07T19:44:11.952Z,99.90
2023-03-07T19:46:39.611Z,99.90
2023-03-07T19:49:09.003Z,99.90
2023-03-07T19:51:36.236Z,99.90
2023-03-07T19:54:04.661Z,99.90
2023-03-07T19:56:32.415Z,99.90
2023-03-07T19:59:01.292Z,99.90
2023-03-07T20:01:29.742Z,99.90
2023-03-07T20:03:57.293Z,99.90
2023-03-07T20:06:27.888Z,99.90
2023-03-07T20:08:55.584Z,99.90
2023-03-07T20:11:28.800Z,99.90
2023-03-07T20:13:58.331Z,99.90
2023-03-07T20:16:29.011Z,99.90
2023-03-07T20:19:02.952Z,99.90
2023-03-07T20:21:30.673Z,99.90
2023-03-07T20:24:00.823Z,99.90
2023-03-07T20:26:31.561Z,99.90
2023-03-07T20:29:00.263Z,99.90
2023-03-07T20:31:28.332Z,99.90
2023-03-07T20:33:58.141Z,99.90
2023-03-07T20:36:27.874Z,99.90
2023-03-07T20:38:57.381Z,99.90
2023-03-07T20:41:28.004Z,99.90
2023-03-07T20:44:02.262Z,99.90
2023-03-07T20:46:31.073Z,99.90
2023-03-07T20:48:59.894Z,99.90
2023-03-07T20:51:29.821Z,99.90
2023-03-07T20:54:01.747Z,99.90
2023-03-07T20:56:31.759Z,99.90
2023-03-07T20:59:00.044Z,99.90
2023-03-07T21:01:29.931Z,99.90
2023-03-07T21:04:06.197Z,99.90
2023-03-07T21:06:34.583Z,99.90
2023-03-07T21:09:03.360Z,99.90
2023-03-07T21:11:31.360Z,99.90
2023-03-07T21:13:59.220Z,99.90
2023-03-07T21:16:28.009Z,99.90
2023-03-07T21:19:01.668Z,99.90
2023-03-07T21:21:30.728Z,99.90
2023-03-07T21:23:58.579Z,99.90
2023-03-07T21:26:29.053Z,99.90
2023-03-07T21:28:56.948Z,99.90
2023-03-07T21:31:26.967Z,99.90
2023-03-07T21:33:56.092Z,99.90
2023-03-07T21:36:26.913Z,99.90
2023-03-07T21:38:54.885Z,99.90
2023-03-07T21:41:24.807Z,99.90
2023-03-07T21:43:55.952Z,99.90
2023-03-07T21:46:23.993Z,99.90
2023-03-07T21:48:51.733Z,99.90
2023-03-07T21:51:19.884Z,99.90
2023-03-07T21:53:48.205Z,99.90
2023-03-07T21:56:17.141Z,99.90
2023-03-07T21:58:48.469Z,99.90
2023-03-07T22:01:19.269Z,99.90
2023-03-07T22:03:47.066Z,99.90
2023-03-07T22:06:15.781Z,99.90
2023-03-07T22:08:43.074Z,99.90
2023-03-07T22:11:12.207Z,99.90
2023-03-07T22:13:40.890Z,99.90
2023-03-07T22:16:11.832Z,99.90
2023-03-07T22:18:39.505Z,99.90
2023-03-07T22:21:14.480Z,99.90
2023-03-07T22:23:42.618Z,99.90
2023-03-07T22:26:11.279Z,99.90
2023-03-07T22:28:40.475Z,99.90
2023-03-07T22:31:12.642Z,99.90
2023-03-07T22:33:41.054Z,99.90
2023-03-07T22:36:11.521Z,99.90
2023-03-07T22:38:41.551Z,99.90
2023-03-07T22:41:12.698Z,99.90
2023-03-07T22:43:40.122Z,99.90
2023-03-07T22:46:08.280Z,99.90
2023-03-07T22:48:36.157Z,99.90
2023-03-07T22:51:04.230Z,99.90
2023-03-07T22:53:33.113Z,99.90
2023-03-07T22:56:00.741Z,99.90
2023-03-07T22:58:28.990Z,99.90
2023-03-07T23:00:56.261Z,99.90
2023-03-07T23:03:23.659Z,99.90
2023-03-07T23:05:50.876Z,99.90
2023-03-07T23:08:18.184Z,99.90
2023-03-07T23:10:45.776Z,99.90
2023-03-07T23:13:13.182Z,99.90
2023-03-07T23:15:41.415Z,99.90
2023-03-07T23:18:08.858Z,99.90
2023-03-07T23:20:38.881Z,99.90
2023-03-07T23:23:09.449Z,99.90
2023-03-07T23:25:43.721Z,99.90
2023-03-07T23:28:11.053Z,99.90
2023-03-07T23:30:39.708Z,99.90
2023-03-07T23:33:07.418Z,99.90
2023-03-07T23:35:35.627Z,99.90
2023-03-07T23:38:03.295Z,99.90
2023-03-07T23:40:30.520Z,99.90
2023-03-07T23:42:58.219Z,99.90
2023-03-07T23:45:26.020Z,99.90
2023-03-07T23:47:53.753Z,99.90
2023-03-07T23:50:21.150Z,99.90
2023-03-07T23:52:48.346Z,99.90
2023-03-07T23:55:15.920Z,99.90
2023-03-07T23:57:43.178Z,99.90
